PWSweather.com
Personal Weather Stations
Station Observations
CARNOUSTIE
Pambride, CarnoustieGB DD7 6DY

PambrideCarnoustieGB DD7 6DY

Lat: 56.50889, Lon: -2.7051

Elevation: 105

Station Type: Oregon Scientific WMR200

www.carnoustieweather.co.uk

High Low Average
Temperature 66.6°F19.2°C 52.3°F11.3°C 57.5°F14.2°C
Dew Point 55.6°F13.1°C 47.6°F8.7°C 51.0°F10.6°C
Winds 13.8 mph 22.2 kmh 2.3 mph 3.7 kmh 6.0 mph S9.7 kmh S
Wind Gusts 18.4 mph29.6 kmh 2.3 mph3.7 kmh 8.0 mph12.9 kmh
Humidity 98% 52% 80%
Pressure 30.09 in1019.0 mb 29.41 in995.9 mb -
Precipitation 0.03 in0.8 mm - -
Hour Temp Dew Point Humidity Winds Wind Gusts Pressure Precip Precip Rate Daily Precip Total
12:00 AM 52.9°F11.6°C 50.0°F10.0°C 90% 3.5 mph ENE5.6 kmh ENE 4.6 mph7.4 kmh 30.06 in1017.9 mb - 0.00 in0.0 mm 0.00 in0.0 mm
12:10 AM 52.9°F11.6°C 50.0°F10.0°C 90% 3.5 mph ENE5.6 kmh ENE 4.6 mph7.4 kmh 30.09 in1019.0 mb - 0.00 in0.0 mm 0.00 in0.0 mm
12:20 AM 52.9°F11.6°C 50.3°F10.2°C 91% 3.5 mph NE5.6 kmh NE 4.6 mph7.4 kmh 30.07 in1018.3 mb - 0.00 in0.0 mm 0.00 in0.0 mm
12:30 AM 52.9°F11.6°C 50.3°F10.2°C 91% 3.5 mph NE5.6 kmh NE 3.5 mph5.6 kmh 30.06 in1017.9 mb - 0.00 in0.0 mm 0.00 in0.0 mm
12:40 AM 52.9°F11.6°C 50.3°F10.2°C 91% 2.3 mph NE3.7 kmh NE 3.5 mph5.6 kmh 30.06 in1017.9 mb - 0.00 in0.0 mm 0.00 in0.0 mm
12:50 AM 52.9°F11.6°C 50.3°F10.2°C 91% 2.3 mph E3.7 kmh E 3.5 mph5.6 kmh 30.06 in1017.9 mb - 0.00 in0.0 mm 0.00 in0.0 mm
01:00 AM 52.9°F11.6°C 50.3°F10.2°C 91% 3.5 mph NE5.6 kmh NE 4.6 mph7.4 kmh 30.06 in1017.9 mb - 0.00 in0.0 mm 0.00 in0.0 mm
01:10 AM 52.9°F11.6°C 50.3°F10.2°C 91% 3.5 mph ENE5.6 kmh ENE 3.5 mph5.6 kmh 30.06 in1017.9 mb - 0.00 in0.0 mm 0.00 in0.0 mm
01:20 AM 52.9°F11.6°C 50.3°F10.2°C 91% 3.5 mph ENE5.6 kmh ENE 4.6 mph7.4 kmh 30.06 in1017.9 mb - 0.00 in0.0 mm 0.00 in0.0 mm
01:30 AM 52.9°F11.6°C 50.3°F10.2°C 91% 3.5 mph E5.6 kmh E 4.6 mph7.4 kmh 30.06 in1017.9 mb - 0.00 in0.0 mm 0.00 in0.0 mm
01:40 AM 52.9°F11.6°C 50.3°F10.2°C 91% 3.5 mph E5.6 kmh E 3.5 mph5.6 kmh 30.06 in1017.9 mb - 0.00 in0.0 mm 0.00 in0.0 mm
01:50 AM 52.9°F11.6°C 50.3°F10.2°C 91% 3.5 mph ENE5.6 kmh ENE 3.5 mph5.6 kmh 30.06 in1017.9 mb - 0.00 in0.0 mm 0.00 in0.0 mm
02:00 AM 52.7°F11.5°C 49.8°F9.9°C 90% 3.5 mph ENE5.6 kmh ENE 3.5 mph5.6 kmh 30.06 in1017.9 mb - 0.00 in0.0 mm 0.00 in0.0 mm
02:10 AM 52.7°F11.5°C 49.8°F9.9°C 90% 2.3 mph NE3.7 kmh NE 3.5 mph5.6 kmh 30.06 in1017.9 mb - 0.00 in0.0 mm 0.00 in0.0 mm
02:20 AM 52.5°F11.4°C 49.7°F9.8°C 90% 2.3 mph ESE3.7 kmh ESE 2.3 mph3.7 kmh 30.06 in1017.9 mb - 0.00 in0.0 mm 0.00 in0.0 mm
02:30 AM 52.5°F11.4°C 50.0°F10.0°C 91% 2.3 mph E3.7 kmh E 3.5 mph5.6 kmh 30.06 in1017.9 mb - 0.00 in0.0 mm 0.00 in0.0 mm
02:40 AM 52.5°F11.4°C 50.0°F10.0°C 91% 3.5 mph E5.6 kmh E 3.5 mph5.6 kmh 30.03 in1016.9 mb - 0.00 in0.0 mm 0.00 in0.0 mm
02:50 AM 52.3°F11.3°C 49.8°F9.9°C 91% 3.5 mph SE5.6 kmh SE 4.6 mph7.4 kmh 30.03 in1016.9 mb - 0.00 in0.0 mm 0.00 in0.0 mm
03:00 AM 52.3°F11.3°C 49.8°F9.9°C 91% 4.6 mph SE7.4 kmh SE 5.8 mph9.3 kmh 30.03 in1016.9 mb - 0.00 in0.0 mm 0.00 in0.0 mm
03:10 AM 52.5°F11.4°C 50.0°F10.0°C 91% 3.5 mph SE5.6 kmh SE 4.6 mph7.4 kmh 30.03 in1016.9 mb - 0.00 in0.0 mm 0.00 in0.0 mm
03:20 AM 52.7°F11.5°C 49.8°F9.9°C 90% 4.6 mph ESE7.4 kmh ESE 4.6 mph7.4 kmh 30.03 in1016.9 mb - 0.00 in0.0 mm 0.00 in0.0 mm
03:30 AM 52.9°F11.6°C 50.0°F10.0°C 90% 4.6 mph SE7.4 kmh SE 4.6 mph7.4 kmh 30.03 in1016.9 mb - 0.00 in0.0 mm 0.00 in0.0 mm
03:40 AM 52.9°F11.6°C 50.0°F10.0°C 90% 4.6 mph SE7.4 kmh SE 6.9 mph11.1 kmh 30.03 in1016.9 mb - 0.00 in0.0 mm 0.00 in0.0 mm
03:50 AM 53.1°F11.7°C 50.2°F10.1°C 90% 4.6 mph SE7.4 kmh SE 5.8 mph9.3 kmh 30.03 in1016.9 mb - 0.00 in0.0 mm 0.00 in0.0 mm
04:00 AM 53.1°F11.7°C 49.9°F9.9°C 89% 3.5 mph SE5.6 kmh SE 4.6 mph7.4 kmh 30.03 in1016.9 mb - 0.00 in0.0 mm 0.00 in0.0 mm
04:10 AM 53.1°F11.7°C 49.9°F9.9°C 89% 3.5 mph SE5.6 kmh SE 4.6 mph7.4 kmh 30.03 in1016.9 mb - 0.00 in0.0 mm 0.00 in0.0 mm
04:20 AM 53.2°F11.8°C 49.8°F9.9°C 88% 3.5 mph SE5.6 kmh SE 4.6 mph7.4 kmh 30.03 in1016.9 mb - 0.00 in0.0 mm 0.00 in0.0 mm
04:30 AM 53.2°F11.8°C 49.8°F9.9°C 88% 4.6 mph SE7.4 kmh SE 4.6 mph7.4 kmh 30.03 in1016.9 mb - 0.00 in0.0 mm 0.00 in0.0 mm
04:40 AM 53.2°F11.8°C 49.8°F9.9°C 88% 4.6 mph SE7.4 kmh SE 6.9 mph11.1 kmh 30.03 in1016.9 mb - 0.00 in0.0 mm 0.00 in0.0 mm
04:50 AM 53.2°F11.8°C 49.8°F9.9°C 88% 3.5 mph SE5.6 kmh SE 4.6 mph7.4 kmh 30.03 in1016.9 mb - 0.00 in0.0 mm 0.00 in0.0 mm
05:00 AM 53.2°F11.8°C 49.8°F9.9°C 88% 3.5 mph SE5.6 kmh SE 4.6 mph7.4 kmh 30.03 in1016.9 mb - 0.00 in0.0 mm 0.00 in0.0 mm
05:10 AM 53.2°F11.8°C 49.8°F9.9°C 88% 3.5 mph SE5.6 kmh SE 4.6 mph7.4 kmh 30.03 in1016.9 mb - 0.00 in0.0 mm 0.00 in0.0 mm
05:20 AM 53.2°F11.8°C 50.1°F10.1°C 89% 2.3 mph E3.7 kmh E 3.5 mph5.6 kmh 30.01 in1016.3 mb - 0.00 in0.0 mm 0.00 in0.0 mm
05:30 AM 53.4°F11.9°C 50.3°F10.2°C 89% 3.5 mph ESE5.6 kmh ESE 3.5 mph5.6 kmh 30.00 in1015.9 mb - 0.00 in0.0 mm 0.00 in0.0 mm
05:40 AM 53.8°F12.1°C 50.3°F10.2°C 88% 3.5 mph ENE5.6 kmh ENE 3.5 mph5.6 kmh 29.97 in1014.9 mb - 0.00 in0.0 mm 0.00 in0.0 mm
05:50 AM 53.8°F12.1°C 50.3°F10.2°C 88% 4.6 mph ESE7.4 kmh ESE 5.8 mph9.3 kmh 29.97 in1014.9 mb - 0.00 in0.0 mm 0.00 in0.0 mm
06:00 AM 54.0°F12.2°C 50.5°F10.3°C 88% 3.5 mph SE5.6 kmh SE 4.6 mph7.4 kmh 29.97 in1014.9 mb - 0.00 in0.0 mm 0.00 in0.0 mm
06:10 AM 54.3°F12.4°C 50.8°F10.4°C 88% 3.5 mph SSE5.6 kmh SSE 4.6 mph7.4 kmh 29.97 in1014.9 mb - 0.00 in0.0 mm 0.00 in0.0 mm
06:20 AM 54.5°F12.5°C 51.0°F10.6°C 88% 5.8 mph SSE9.3 kmh SSE 6.9 mph11.1 kmh 29.97 in1014.9 mb - 0.00 in0.0 mm 0.00 in0.0 mm
06:30 AM 54.9°F12.7°C 51.7°F10.9°C 89% 3.5 mph S5.6 kmh S 5.8 mph9.3 kmh 29.97 in1014.9 mb - 0.00 in0.0 mm 0.00 in0.0 mm
06:40 AM 55.4°F13.0°C 52.2°F11.2°C 89% 3.5 mph SSE5.6 kmh SSE 5.8 mph9.3 kmh 29.97 in1014.9 mb - 0.00 in0.0 mm 0.00 in0.0 mm
06:50 AM 55.8°F13.2°C 52.6°F11.4°C 89% 3.5 mph S5.6 kmh S 4.6 mph7.4 kmh 29.97 in1014.9 mb - 0.00 in0.0 mm 0.00 in0.0 mm
07:00 AM 56.1°F13.4°C 52.6°F11.4°C 88% 3.5 mph SSE5.6 kmh SSE 3.5 mph5.6 kmh 29.97 in1014.9 mb - 0.00 in0.0 mm 0.00 in0.0 mm
07:10 AM 57.3°F14.1°C 53.4°F11.9°C 87% 3.5 mph S5.6 kmh S 3.5 mph5.6 kmh 29.97 in1014.9 mb - 0.00 in0.0 mm 0.00 in0.0 mm
07:20 AM 58.1°F14.5°C 53.6°F12.0°C 85% 4.6 mph S7.4 kmh S 5.8 mph9.3 kmh 29.97 in1014.9 mb - 0.00 in0.0 mm 0.00 in0.0 mm
07:30 AM 57.9°F14.4°C 53.1°F11.7°C 84% 2.3 mph S3.7 kmh S 4.6 mph7.4 kmh 29.97 in1014.9 mb - 0.00 in0.0 mm 0.00 in0.0 mm
07:40 AM 57.0°F13.9°C 51.9°F11.1°C 83% 2.3 mph S3.7 kmh S 2.3 mph3.7 kmh 29.97 in1014.9 mb - 0.00 in0.0 mm 0.00 in0.0 mm
07:50 AM 57.2°F14.0°C 52.1°F11.2°C 83% 3.5 mph S5.6 kmh S 4.6 mph7.4 kmh 29.95 in1014.2 mb - 0.00 in0.0 mm 0.00 in0.0 mm
08:00 AM 57.7°F14.3°C 52.9°F11.6°C 84% 2.3 mph S3.7 kmh S 3.5 mph5.6 kmh 29.94 in1013.9 mb - 0.00 in0.0 mm 0.00 in0.0 mm
08:10 AM 58.5°F14.7°C 53.3°F11.8°C 83% 3.5 mph WSW5.6 kmh WSW 4.6 mph7.4 kmh 29.94 in1013.9 mb - 0.00 in0.0 mm 0.00 in0.0 mm
08:20 AM 58.6°F14.8°C 52.5°F11.4°C 80% 4.6 mph S7.4 kmh S 5.8 mph9.3 kmh 29.94 in1013.9 mb - 0.00 in0.0 mm 0.00 in0.0 mm
08:30 AM 59.4°F15.2°C 52.1°F11.2°C 77% 4.6 mph SW7.4 kmh SW 6.9 mph11.1 kmh 29.94 in1013.9 mb - 0.00 in0.0 mm 0.00 in0.0 mm
08:40 AM 59.9°F15.5°C 51.6°F10.9°C 74% 5.8 mph WSW9.3 kmh WSW 8.1 mph13.0 kmh 29.94 in1013.9 mb - 0.00 in0.0 mm 0.00 in0.0 mm
08:50 AM 60.2°F15.7°C 51.5°F10.8°C 73% 4.6 mph SW7.4 kmh SW 8.1 mph13.0 kmh 29.94 in1013.9 mb - 0.00 in0.0 mm 0.00 in0.0 mm
09:00 AM 60.6°F15.9°C 51.5°F10.8°C 72% 4.6 mph SSW7.4 kmh SSW 5.8 mph9.3 kmh 29.94 in1013.9 mb - 0.00 in0.0 mm 0.00 in0.0 mm
09:10 AM 60.6°F15.9°C 50.4°F10.2°C 69% 5.8 mph SW9.3 kmh SW 6.9 mph11.1 kmh 29.94 in1013.9 mb - 0.00 in0.0 mm 0.00 in0.0 mm
09:20 AM 61.0°F16.1°C 49.9°F9.9°C 67% 5.8 mph SW9.3 kmh SW 8.1 mph13.0 kmh 29.92 in1013.2 mb - 0.00 in0.0 mm 0.00 in0.0 mm
09:30 AM 63.1°F17.3°C 51.5°F10.8°C 66% 5.8 mph SW9.3 kmh SW 6.9 mph11.1 kmh 29.91 in1012.9 mb - 0.00 in0.0 mm 0.00 in0.0 mm
09:40 AM 62.5°F16.9°C 49.8°F9.9°C 63% 5.8 mph SSW9.3 kmh SSW 8.1 mph13.0 kmh 29.91 in1012.9 mb - 0.00 in0.0 mm 0.00 in0.0 mm
09:50 AM 63.6°F17.6°C 49.5°F9.7°C 60% 5.8 mph WSW9.3 kmh WSW 9.2 mph14.8 kmh 29.91 in1012.9 mb - 0.00 in0.0 mm 0.00 in0.0 mm
10:00 AM 63.6°F17.6°C 50.3°F10.2°C 62% 10.4 mph WSW16.7 kmh WSW 12.7 mph20.4 kmh 29.91 in1012.9 mb - 0.00 in0.0 mm 0.00 in0.0 mm
10:10 AM 61.5°F16.4°C 49.6°F9.8°C 65% 11.5 mph W18.5 kmh W 13.8 mph22.2 kmh 29.91 in1012.9 mb - 0.00 in0.0 mm 0.00 in0.0 mm
10:20 AM 60.6°F15.9°C 49.6°F9.8°C 67% 10.4 mph WSW16.7 kmh WSW 12.7 mph20.4 kmh 29.93 in1013.5 mb - 0.00 in0.0 mm 0.00 in0.0 mm
10:30 AM 60.8°F16.0°C 49.4°F9.7°C 66% 8.1 mph W13.0 kmh W 11.5 mph18.5 kmh 29.94 in1013.9 mb - 0.00 in0.0 mm 0.00 in0.0 mm
10:40 AM 63.9°F17.7°C 49.2°F9.6°C 59% 11.5 mph WSW18.5 kmh WSW 13.8 mph22.2 kmh 29.91 in1012.9 mb - 0.00 in0.0 mm 0.00 in0.0 mm
10:50 AM 64.8°F18.2°C 48.2°F9.0°C 55% 9.2 mph WSW14.8 kmh WSW 15.0 mph24.1 kmh 29.89 in1012.2 mb - 0.00 in0.0 mm 0.00 in0.0 mm
11:00 AM 65.6°F18.7°C 49.9°F9.9°C 57% 10.4 mph SW16.7 kmh SW 17.3 mph27.8 kmh 29.88 in1011.9 mb - 0.00 in0.0 mm 0.00 in0.0 mm
11:10 AM 66.6°F19.2°C 49.4°F9.7°C 54% 8.1 mph W13.0 kmh W 9.2 mph14.8 kmh 29.88 in1011.9 mb - 0.00 in0.0 mm 0.00 in0.0 mm
11:20 AM 65.7°F18.7°C 48.1°F8.9°C 53% 12.7 mph W20.4 kmh W 16.1 mph25.9 kmh 29.87 in1011.5 mb - 0.00 in0.0 mm 0.00 in0.0 mm
11:30 AM 66.0°F18.9°C 47.9°F8.8°C 52% 12.7 mph W20.4 kmh W 18.4 mph29.6 kmh 29.86 in1011.2 mb - 0.00 in0.0 mm 0.00 in0.0 mm
11:40 AM 65.8°F18.8°C 47.7°F8.7°C 52% 9.2 mph SW14.8 kmh SW 11.5 mph18.5 kmh 29.86 in1011.2 mb - 0.00 in0.0 mm 0.00 in0.0 mm
11:50 AM 65.2°F18.4°C 47.6°F8.7°C 53% 13.8 mph W22.2 kmh W 16.1 mph25.9 kmh 29.86 in1011.2 mb - 0.00 in0.0 mm 0.00 in0.0 mm
12:00 PM 65.5°F18.6°C 49.4°F9.7°C 56% 8.1 mph W13.0 kmh W 10.4 mph16.7 kmh 29.86 in1011.2 mb - 0.00 in0.0 mm 0.00 in0.0 mm
12:10 PM 65.8°F18.8°C 49.2°F9.6°C 55% 10.4 mph W16.7 kmh W 12.7 mph20.4 kmh 29.86 in1011.2 mb - 0.00 in0.0 mm 0.00 in0.0 mm
12:20 PM 65.5°F18.6°C 48.9°F9.4°C 55% 11.5 mph WSW18.5 kmh WSW 15.0 mph24.1 kmh 29.86 in1011.2 mb - 0.00 in0.0 mm 0.00 in0.0 mm
12:30 PM 64.8°F18.2°C 48.2°F9.0°C 55% 11.5 mph WSW18.5 kmh WSW 13.8 mph22.2 kmh 29.86 in1011.2 mb - 0.00 in0.0 mm 0.00 in0.0 mm
12:40 PM 64.8°F18.2°C 48.7°F9.3°C 56% 10.4 mph WSW16.7 kmh WSW 13.8 mph22.2 kmh 29.86 in1011.2 mb - 0.00 in0.0 mm 0.00 in0.0 mm
12:50 PM 64.3°F17.9°C 48.8°F9.3°C 57% 10.4 mph WSW16.7 kmh WSW 17.3 mph27.8 kmh 29.86 in1011.2 mb - 0.00 in0.0 mm 0.00 in0.0 mm
01:00 PM 63.5°F17.5°C 49.9°F9.9°C 61% 12.7 mph WSW20.4 kmh WSW 16.1 mph25.9 kmh 29.86 in1011.2 mb - 0.00 in0.0 mm 0.00 in0.0 mm
01:10 PM 63.0°F17.2°C 49.8°F9.9°C 62% 10.4 mph WSW16.7 kmh WSW 13.8 mph22.2 kmh 29.82 in1009.8 mb - 0.00 in0.0 mm 0.00 in0.0 mm
01:20 PM 63.1°F17.3°C 50.3°F10.2°C 63% 11.5 mph W18.5 kmh W 13.8 mph22.2 kmh 29.82 in1009.8 mb - 0.00 in0.0 mm 0.00 in0.0 mm
01:30 PM 63.1°F17.3°C 50.3°F10.2°C 63% 10.4 mph SW16.7 kmh SW 13.8 mph22.2 kmh 29.82 in1009.8 mb - 0.00 in0.0 mm 0.00 in0.0 mm
01:40 PM 63.3°F17.4°C 50.9°F10.5°C 64% 8.1 mph W13.0 kmh W 9.2 mph14.8 kmh 29.82 in1009.8 mb - 0.00 in0.0 mm 0.00 in0.0 mm
01:50 PM 63.0°F17.2°C 51.4°F10.8°C 66% 8.1 mph W13.0 kmh W 13.8 mph22.2 kmh 29.82 in1009.8 mb - 0.00 in0.0 mm 0.00 in0.0 mm
09:50 PM 62.6°F17.0°C 52.3°F11.3°C 69% 6.9 mph WSW11.1 kmh WSW 11.5 mph18.5 kmh 29.82 in1009.8 mb - 0.00 in0.0 mm 0.00 in0.0 mm
10:00 PM 56.8°F13.8°C 55.1°F12.8°C 94% 4.6 mph SSW7.4 kmh SSW 8.1 mph13.0 kmh 29.53 in1000.0 mb - 0.00 in0.0 mm 0.00 in0.0 mm
10:10 PM 56.8°F13.8°C 55.1°F12.8°C 94% 5.8 mph S9.3 kmh S 6.9 mph11.1 kmh 29.53 in1000.0 mb - 0.00 in0.0 mm 0.00 in0.0 mm
10:20 PM 56.5°F13.6°C 55.1°F12.8°C 95% 5.8 mph S9.3 kmh S 8.1 mph13.0 kmh 29.50 in999.0 mb - 0.00 in0.0 mm 0.00 in0.0 mm
10:30 PM 56.3°F13.5°C 55.2°F12.9°C 96% 4.6 mph SW7.4 kmh SW 6.9 mph11.1 kmh 29.50 in999.0 mb - 0.02 in0.5 mm 0.02 in0.5 mm
10:40 PM 56.3°F13.5°C 55.2°F12.9°C 96% 6.9 mph SSW11.1 kmh SSW 9.2 mph14.8 kmh 29.50 in999.0 mb - 0.02 in0.5 mm 0.02 in0.5 mm
10:50 PM 56.3°F13.5°C 55.5°F13.1°C 97% 5.8 mph SSW9.3 kmh SSW 9.2 mph14.8 kmh 29.48 in998.3 mb - 0.03 in0.8 mm 0.03 in0.8 mm
11:00 PM 56.1°F13.4°C 55.6°F13.1°C 98% 6.9 mph S11.1 kmh S 10.4 mph16.7 kmh 29.47 in998.0 mb - 0.06 in1.5 mm 0.13 in3.3 mm
11:10 PM 55.9°F13.3°C 55.4°F13.0°C 98% 8.1 mph S13.0 kmh S 11.5 mph18.5 kmh 29.47 in998.0 mb - 0.06 in1.5 mm 0.19 in4.8 mm
11:20 PM 55.9°F13.3°C 55.4°F13.0°C 98% 5.8 mph S9.3 kmh S 8.1 mph13.0 kmh 29.45 in997.3 mb - 0.07 in1.8 mm 0.02 in0.5 mm
11:30 PM 55.9°F13.3°C 55.4°F13.0°C 98% 5.8 mph SSW9.3 kmh SSW 8.1 mph13.0 kmh 29.44 in997.0 mb - 0.05 in1.3 mm 0.02 in0.5 mm
11:40 PM 55.9°F13.3°C 55.4°F13.0°C 98% 6.9 mph S11.1 kmh S 8.1 mph13.0 kmh 29.41 in995.9 mb - 0.05 in1.3 mm 0.02 in0.5 mm
11:50 PM 55.9°F13.3°C 55.4°F13.0°C 98% 5.8 mph S9.3 kmh S 10.4 mph16.7 kmh 29.43 in996.6 mb - 0.04 in1.0 mm 0.02 in0.5 mm